createdAt,value
2023-02-22T00:00:59.966Z,3.37
2023-02-22T00:04:08.033Z,3.10
2023-02-22T00:07:14.972Z,3.33
2023-02-22T00:10:21.914Z,3.23
2023-02-22T00:13:29.337Z,3.27
2023-02-22T00:16:34.571Z,3.50
2023-02-22T00:19:40.197Z,3.23
2023-02-22T00:22:46.486Z,2.80
2023-02-22T00:25:53.438Z,2.80
2023-02-22T00:28:59.011Z,3.27
2023-02-22T00:32:04.268Z,2.60
2023-02-22T00:35:10.090Z,2.90
2023-02-22T00:38:19.001Z,3.33
2023-02-22T00:41:25.583Z,2.50
2023-02-22T00:44:30.633Z,2.43
2023-02-22T00:47:36.141Z,2.73
2023-02-22T00:50:41.272Z,2.87
2023-02-22T00:53:46.458Z,2.73
2023-02-22T00:56:53.454Z,2.67
2023-02-22T00:59:58.650Z,3.07
2023-02-22T01:03:04.993Z,2.73
2023-02-22T01:06:12.345Z,3.00
2023-02-22T01:09:18.892Z,2.90
2023-02-22T01:12:27.958Z,3.17
2023-02-22T01:15:33.012Z,3.03
2023-02-22T01:18:38.447Z,3.50
2023-02-22T01:21:43.777Z,3.00
2023-02-22T01:24:49.027Z,2.87
2023-02-22T01:27:56.402Z,2.63
2023-02-22T01:31:03.231Z,3.10
2023-02-22T01:34:08.161Z,2.80
2023-02-22T01:37:13.706Z,2.70
2023-02-22T01:40:21.846Z,2.90
2023-02-22T01:43:30.383Z,3.17
2023-02-22T01:46:36.163Z,3.00
2023-02-22T01:49:44.319Z,3.17
2023-02-22T01:52:49.443Z,2.80
2023-02-22T01:55:55.571Z,3.43
2023-02-22T01:59:06.904Z,3.20
2023-02-22T02:02:14.624Z,2.57
2023-02-22T02:05:20.010Z,2.90
2023-02-22T02:08:32.273Z,3.20
2023-02-22T02:11:40.500Z,4.13
2023-02-22T02:14:47.801Z,4.10
2023-02-22T02:17:54.626Z,2.90
2023-02-22T02:21:32.748Z,2.83
2023-02-22T02:25:08.962Z,2.97
2023-02-22T02:28:44.781Z,3.20
2023-02-22T02:32:27.841Z,3.00
2023-02-22T02:35:47.073Z,3.10
2023-02-22T02:38:58.017Z,2.90
2023-02-22T02:42:07.456Z,3.23
2023-02-22T02:45:15.510Z,3.27
2023-02-22T02:48:27.162Z,3.40
2023-02-22T02:51:36.626Z,3.27
2023-02-22T02:54:42.178Z,2.90
2023-02-22T02:57:47.208Z,3.03
2023-02-22T03:00:55.654Z,3.40
2023-02-22T03:04:22.249Z,3.40
2023-02-22T03:07:38.496Z,2.87
2023-02-22T03:10:52.112Z,3.27
2023-02-22T03:14:20.571Z,3.13
2023-02-22T03:17:33.041Z,2.67
2023-02-22T03:20:46.781Z,3.30
2023-02-22T03:23:57.838Z,2.77
2023-02-22T03:27:09.525Z,3.00
2023-02-22T03:30:25.151Z,3.13
2023-02-22T03:33:36.363Z,3.47
2023-02-22T03:36:46.154Z,3.17
2023-02-22T03:39:55.386Z,3.03
2023-02-22T03:43:03.635Z,2.83
2023-02-22T03:46:12.356Z,3.03
2023-02-22T03:49:25.469Z,3.30
2023-02-22T03:52:32.831Z,2.97
2023-02-22T03:55:38.144Z,3.50
2023-02-22T03:58:46.079Z,3.40
2023-02-22T04:01:51.397Z,3.13
2023-02-22T04:04:56.914Z,3.20
2023-02-22T04:08:03.925Z,3.00
2023-02-22T04:11:10.200Z,3.67
2023-02-22T04:14:16.116Z,2.70
2023-02-22T04:17:22.506Z,3.37
2023-02-22T04:20:28.042Z,2.70
2023-02-22T04:23:37.669Z,3.50
2023-02-22T04:26:43.200Z,3.27
2023-02-22T04:29:50.124Z,3.03
2023-02-22T04:32:56.505Z,3.43
2023-02-22T04:36:01.716Z,3.43
2023-02-22T04:39:12.533Z,3.17
2023-02-22T04:42:20.225Z,3.60
2023-02-22T04:45:25.646Z,3.53
2023-02-22T04:48:31.012Z,3.17
2023-02-22T04:51:36.941Z,3.47
2023-02-22T04:54:48.959Z,3.40
2023-02-22T04:57:55.452Z,4.00
2023-02-22T05:01:01.490Z,3.70
2023-02-22T05:04:07.332Z,3.90
2023-02-22T05:07:12.700Z,5.40
2023-02-22T05:10:19.758Z,4.43
2023-02-22T05:13:25.319Z,3.90
2023-02-22T05:16:33.960Z,4.47
2023-02-22T05:19:42.154Z,5.00
2023-02-22T05:22:47.383Z,5.43
2023-02-22T05:25:53.829Z,4.70
2023-02-22T05:28:58.923Z,4.60
2023-02-22T05:32:04.406Z,3.90
2023-02-22T05:35:09.910Z,4.70
2023-02-22T05:38:17.252Z,4.43
2023-02-22T05:41:23.661Z,4.40
2023-02-22T05:44:29.516Z,5.63
2023-02-22T05:47:38.805Z,4.90
2023-02-22T05:50:44.653Z,5.37
2023-02-22T05:53:52.160Z,5.73
2023-02-22T05:56:58.734Z,5.23
2023-02-22T06:00:05.313Z,5.27
2023-02-22T06:03:18.057Z,6.23
2023-02-22T06:06:23.277Z,5.10
2023-02-22T06:09:28.657Z,6.47
2023-02-22T06:12:35.707Z,6.40
2023-02-22T06:15:40.815Z,4.80
2023-02-22T06:18:45.944Z,5.03
2023-02-22T06:21:51.946Z,4.73
2023-02-22T06:24:57.120Z,5.60
2023-02-22T06:28:03.806Z,5.20
2023-02-22T06:31:08.940Z,4.97
2023-02-22T06:34:14.820Z,5.30
2023-02-22T06:37:20.050Z,5.50
2023-02-22T06:40:29.519Z,8.33
2023-02-22T06:43:36.050Z,5.27
2023-02-22T06:46:41.563Z,4.37
2023-02-22T06:49:46.770Z,5.00
2023-02-22T06:52:52.050Z,6.17
2023-02-22T06:55:57.195Z,4.67
2023-02-22T06:59:04.417Z,5.57
2023-02-22T07:02:12.554Z,5.27
2023-02-22T07:05:19.686Z,4.57
2023-02-22T07:08:24.806Z,7.43
2023-02-22T07:11:30.147Z,4.97
2023-02-22T07:14:36.723Z,4.50
2023-02-22T07:17:42.511Z,5.13
2023-02-22T07:20:47.656Z,4.70
2023-02-22T07:24:00.230Z,4.70
2023-02-22T07:27:05.832Z,5.17
2023-02-22T07:30:19.218Z,5.33
2023-02-22T07:33:24.106Z,6.73
2023-02-22T07:36:38.060Z,5.67
2023-02-22T07:39:43.889Z,5.00
2023-02-22T07:42:56.729Z,4.07
2023-02-22T07:46:03.798Z,4.83
2023-02-22T07:49:09.399Z,4.60
2023-02-22T07:52:14.543Z,6.30
2023-02-22T07:55:22.273Z,6.37
2023-02-22T07:58:28.582Z,4.93
2023-02-22T08:01:37.648Z,5.40
2023-02-22T08:04:42.551Z,6.90
2023-02-22T08:07:47.789Z,4.90
2023-02-22T08:10:53.732Z,5.03
2023-02-22T08:13:58.927Z,4.60
2023-02-22T08:17:07.672Z,5.17
2023-02-22T08:20:14.151Z,3.83
2023-02-22T08:23:20.632Z,4.23
2023-02-22T08:26:25.827Z,4.53
2023-02-22T08:29:33.829Z,4.90
2023-02-22T08:32:40.429Z,3.80
2023-02-22T08:35:49.605Z,5.43
2023-02-22T08:38:55.087Z,4.43
2023-02-22T08:42:00.314Z,4.07
2023-02-22T08:45:05.558Z,4.47
2023-02-22T08:48:17.878Z,3.80
2023-02-22T08:51:23.147Z,4.03
2023-02-22T08:54:28.318Z,4.03
2023-02-22T08:57:33.411Z,4.83
2023-02-22T09:00:39.679Z,4.70
2023-02-22T09:03:50.253Z,4.27
2023-02-22T09:06:55.459Z,4.10
2023-02-22T09:10:00.849Z,4.03
2023-02-22T09:13:06.508Z,4.37
2023-02-22T09:16:13.117Z,3.97
2023-02-22T09:19:19.965Z,4.50
2023-02-22T09:22:25.196Z,4.33
2023-02-22T09:25:30.008Z,4.83
2023-02-22T09:28:35.409Z,3.67
2023-02-22T09:31:41.796Z,3.70
2023-02-22T09:34:49.430Z,4.50
2023-02-22T09:37:55.271Z,3.70
2023-02-22T09:41:12.382Z,3.70
2023-02-22T09:44:22.666Z,7.90
2023-02-22T09:47:35.497Z,6.43
2023-02-22T09:50:44.532Z,6.20
2023-02-22T09:53:51.220Z,5.40
2023-02-22T09:56:59.534Z,4.33
2023-02-22T10:00:13.722Z,4.63
2023-02-22T10:03:26.011Z,6.93
2023-02-22T10:06:33.677Z,5.67
2023-02-22T10:09:42.779Z,10.30
2023-02-22T10:12:54.851Z,5.07
2023-02-22T10:16:06.118Z,4.33
2023-02-22T10:19:29.343Z,5.23
2023-02-22T10:22:45.022Z,4.70
2023-02-22T10:25:57.432Z,5.00
2023-02-22T10:29:04.956Z,3.87
2023-02-22T10:32:16.345Z,3.60
2023-02-22T10:35:25.718Z,3.87
2023-02-22T10:38:33.805Z,4.60
2023-02-22T10:41:42.572Z,4.30
2023-02-22T10:44:48.251Z,3.47
2023-02-22T10:47:59.126Z,3.93
2023-02-22T10:51:06.703Z,3.80
2023-02-22T10:54:27.256Z,3.73
2023-02-22T10:57:35.225Z,6.07
2023-02-22T11:00:41.273Z,4.03
2023-02-22T11:03:46.838Z,3.93
2023-02-22T11:07:08.307Z,6.10
2023-02-22T11:10:32.678Z,4.00
2023-02-22T11:13:40.537Z,3.80
2023-02-22T11:16:48.557Z,3.90
2023-02-22T11:19:53.675Z,3.50
2023-02-22T11:23:01.202Z,4.37
2023-02-22T11:26:13.513Z,4.00
2023-02-22T11:29:32.063Z,3.80
2023-02-22T11:32:37.738Z,3.67
2023-02-22T11:35:53.336Z,6.83
2023-02-22T11:39:00.778Z,4.03
2023-02-22T11:42:23.978Z,4.07
2023-02-22T11:45:29.880Z,4.43
2023-02-22T11:48:39.191Z,4.43
2023-02-22T11:51:55.123Z,6.53
2023-02-22T11:55:10.849Z,4.80
2023-02-22T11:58:32.106Z,5.07
2023-02-22T12:01:43.051Z,4.53
2023-02-22T12:05:16.022Z,4.10
2023-02-22T12:08:33.712Z,4.10
2023-02-22T12:11:45.526Z,4.13
2023-02-22T12:14:56.561Z,5.53
2023-02-22T12:18:07.374Z,4.60
2023-02-22T12:21:17.073Z,4.20
2023-02-22T12:24:23.938Z,3.70
2023-02-22T12:27:32.153Z,3.90
2023-02-22T12:30:41.076Z,4.90
2023-02-22T12:33:53.016Z,3.97
2023-02-22T12:37:02.690Z,4.40
2023-02-22T12:40:13.643Z,6.73
2023-02-22T12:43:22.555Z,4.00
2023-02-22T12:46:33.926Z,3.70
2023-02-22T12:49:42.974Z,4.43
2023-02-22T12:52:53.457Z,8.20
2023-02-22T12:56:02.010Z,4.60
2023-02-22T12:59:12.646Z,4.30
2023-02-22T13:02:22.479Z,4.37
2023-02-22T13:05:29.020Z,3.73
2023-02-22T13:08:38.380Z,5.67
2023-02-22T13:11:48.672Z,4.67
2023-02-22T13:15:03.971Z,4.63
2023-02-22T13:18:16.053Z,4.53
2023-02-22T13:21:24.822Z,4.23
2023-02-22T13:24:38.409Z,4.77
2023-02-22T13:27:47.622Z,4.53
2023-02-22T13:31:04.818Z,4.60
2023-02-22T13:34:31.683Z,4.53
2023-02-22T13:38:01.824Z,7.87
2023-02-22T13:41:37.653Z,7.47
2023-02-22T13:44:57.336Z,4.13
2023-02-22T13:48:13.920Z,4.10
2023-02-22T13:51:35.181Z,6.40
2023-02-22T13:54:44.654Z,6.93
2023-02-22T13:57:51.827Z,7.50
2023-02-22T14:00:58.333Z,7.37
2023-02-22T14:04:22.447Z,4.33
2023-02-22T14:07:49.881Z,5.17
2023-02-22T14:10:56.393Z,7.03
2023-02-22T14:14:17.824Z,5.07
2023-02-22T14:17:27.732Z,4.70
2023-02-22T14:20:36.908Z,5.20
2023-02-22T14:23:44.105Z,4.77
2023-02-22T14:27:01.841Z,5.00
2023-02-22T14:30:07.720Z,6.97
2023-02-22T14:33:52.180Z,4.57
2023-02-22T14:37:01.081Z,4.40
2023-02-22T14:40:15.626Z,4.87
2023-02-22T14:43:22.607Z,3.83
2023-02-22T14:46:30.459Z,4.60
2023-02-22T14:49:44.404Z,10.77
2023-02-22T14:52:50.073Z,3.63
2023-02-22T14:56:02.670Z,4.27
2023-02-22T14:59:17.037Z,4.03
2023-02-22T15:02:26.243Z,4.60
2023-02-22T15:05:38.555Z,4.23
2023-02-22T15:08:48.816Z,4.17
2023-02-22T15:11:56.697Z,6.50
2023-02-22T15:15:22.283Z,4.53
2023-02-22T15:18:30.596Z,6.33
2023-02-22T15:21:36.449Z,6.03
2023-02-22T15:24:44.235Z,6.30
2023-02-22T15:27:50.802Z,5.47
2023-02-22T15:31:17.821Z,6.57
2023-02-22T15:34:30.431Z,7.43
2023-02-22T15:37:35.878Z,5.17
2023-02-22T15:40:43.382Z,5.80
2023-02-22T15:44:07.900Z,7.10
2023-02-22T15:47:21.035Z,5.43
2023-02-22T15:50:27.947Z,7.10
2023-02-22T15:53:40.546Z,5.57
2023-02-22T15:56:51.668Z,4.93
2023-02-22T15:59:59.523Z,7.13
2023-02-22T16:03:05.889Z,6.83
2023-02-22T16:06:14.947Z,5.70
2023-02-22T16:09:23.175Z,5.20
2023-02-22T16:12:29.963Z,7.77
2023-02-22T16:15:37.183Z,6.67
2023-02-22T16:18:42.846Z,7.83
2023-02-22T16:21:56.797Z,6.93
2023-02-22T16:25:27.488Z,5.33
2023-02-22T16:28:35.623Z,8.03
2023-02-22T16:31:42.593Z,6.83
2023-02-22T16:34:52.109Z,9.53
2023-02-22T16:38:00.730Z,6.77
2023-02-22T16:41:07.562Z,8.13
2023-02-22T16:44:14.657Z,6.70
2023-02-22T16:47:21.709Z,7.63
2023-02-22T16:50:26.964Z,9.93
2023-02-22T16:53:34.090Z,8.10
2023-02-22T16:56:40.174Z,5.70
2023-02-22T16:59:47.641Z,5.63
2023-02-22T17:02:54.185Z,5.20
2023-02-22T17:05:59.578Z,5.20
2023-02-22T17:09:04.716Z,5.80
2023-02-22T17:12:10.871Z,9.10
2023-02-22T17:15:23.083Z,6.53
2023-02-22T17:18:34.056Z,8.60
2023-02-22T17:21:39.989Z,6.10
2023-02-22T17:24:45.039Z,5.13
2023-02-22T17:27:50.384Z,5.43
2023-02-22T17:30:56.256Z,5.67
2023-02-22T17:34:04.173Z,4.93
2023-02-22T17:37:09.385Z,4.77
2023-02-22T17:40:15.472Z,6.00
2023-02-22T17:43:21.457Z,6.13
2023-02-22T17:46:26.820Z,7.90
2023-02-22T17:49:32.976Z,7.93
2023-02-22T17:52:38.629Z,11.47
2023-02-22T17:55:44.410Z,8.50
2023-02-22T17:58:50.914Z,7.80
2023-02-22T18:01:56.079Z,8.93
2023-02-22T18:05:03.656Z,8.63
2023-02-22T18:08:08.864Z,6.43
2023-02-22T18:11:15.092Z,9.37
2023-02-22T18:14:21.808Z,8.13
2023-02-22T18:17:27.026Z,6.90
2023-02-22T18:20:38.362Z,8.40
2023-02-22T18:23:44.876Z,6.97
2023-02-22T18:26:50.711Z,7.20
2023-02-22T18:29:56.056Z,7.83
2023-02-22T18:33:00.886Z,7.47
2023-02-22T18:36:11.206Z,8.80
2023-02-22T18:39:17.502Z,8.87
2023-02-22T18:42:23.508Z,9.83
2023-02-22T18:45:28.554Z,6.87
2023-02-22T18:48:33.709Z,11.10
2023-02-22T18:51:43.661Z,10.60
2023-02-22T18:54:48.938Z,7.70
2023-02-22T18:57:55.757Z,8.47
2023-02-22T19:01:01.290Z,8.10
2023-02-22T19:04:06.883Z,7.10
2023-02-22T19:07:17.873Z,8.97
2023-02-22T19:10:26.258Z,11.43
2023-02-22T19:13:32.857Z,9.33
2023-02-22T19:16:38.366Z,9.60
2023-02-22T19:19:43.592Z,10.20
2023-02-22T19:22:50.855Z,10.20
2023-02-22T19:25:56.257Z,10.97
2023-02-22T19:29:05.456Z,13.60
2023-02-22T19:32:17.362Z,11.37
2023-02-22T19:35:27.251Z,11.77
2023-02-22T19:38:33.582Z,9.67
2023-02-22T19:41:39.355Z,7.73
2023-02-22T19:44:44.518Z,10.70
2023-02-22T19:47:50.785Z,12.63
2023-02-22T19:51:00.533Z,10.57
2023-02-22T19:54:13.563Z,10.50
2023-02-22T19:57:20.306Z,9.63
2023-02-22T20:00:27.908Z,8.93
2023-02-22T20:03:35.833Z,8.97
2023-02-22T20:06:42.807Z,9.73
2023-02-22T20:09:50.021Z,6.30
2023-02-22T20:12:57.734Z,5.73
2023-02-22T20:16:05.166Z,10.63
2023-02-22T20:19:11.096Z,7.23
2023-02-22T20:22:16.511Z,11.80
2023-02-22T20:25:23.191Z,6.73
2023-02-22T20:28:29.707Z,13.53
2023-02-22T20:31:37.478Z,6.33
2023-02-22T20:34:46.179Z,6.20
2023-02-22T20:37:51.333Z,8.17
2023-02-22T20:40:58.152Z,9.80
2023-02-22T20:44:07.102Z,9.00
2023-02-22T20:47:12.683Z,6.93
2023-02-22T20:50:17.825Z,5.73
2023-02-22T20:53:23.683Z,7.33
2023-02-22T20:56:32.390Z,14.73
2023-02-22T20:59:37.218Z,5.50
2023-02-22T21:02:42.595Z,5.73
2023-02-22T21:05:48.580Z,6.07
2023-02-22T21:08:57.113Z,6.73
2023-02-22T21:12:04.327Z,11.80
2023-02-22T21:15:11.899Z,5.47
2023-02-22T21:18:17.158Z,11.00
2023-02-22T21:21:22.697Z,5.70
2023-02-22T21:24:28.781Z,12.80
2023-02-22T21:27:35.288Z,6.03
2023-02-22T21:30:40.839Z,8.37
2023-02-22T21:33:46.599Z,5.30
2023-02-22T21:36:52.596Z,7.17
2023-02-22T21:39:59.128Z,6.40
2023-02-22T21:43:05.712Z,6.77
2023-02-22T21:46:12.540Z,8.67
2023-02-22T21:49:18.236Z,5.20
2023-02-22T21:52:25.716Z,5.27
2023-02-22T21:55:30.968Z,5.33
2023-02-22T21:58:37.403Z,5.20
2023-02-22T22:01:47.206Z,9.47
2023-02-22T22:04:52.472Z,6.03
2023-02-22T22:07:57.939Z,5.27
2023-02-22T22:11:05.546Z,6.90
2023-02-22T22:14:13.575Z,7.03
2023-02-22T22:17:18.804Z,5.03
2023-02-22T22:20:23.964Z,6.23
2023-02-22T22:23:30.558Z,5.73
2023-02-22T22:26:35.793Z,5.10
2023-02-22T22:29:43.486Z,5.57
2023-02-22T22:32:51.694Z,5.67
2023-02-22T22:35:59.141Z,4.83
2023-02-22T22:39:12.989Z,5.33
2023-02-22T22:42:18.926Z,8.07
2023-02-22T22:45:26.020Z,5.00
2023-02-22T22:48:34.152Z,6.53
2023-02-22T22:51:40.984Z,4.30
2023-02-22T22:54:46.533Z,5.13
2023-02-22T22:57:52.425Z,4.47
2023-02-22T23:01:01.325Z,4.60
2023-02-22T23:04:08.001Z,5.50
2023-02-22T23:07:13.563Z,5.73
2023-02-22T23:10:19.756Z,5.83
2023-02-22T23:13:25.285Z,4.30
2023-02-22T23:16:32.393Z,4.43
2023-02-22T23:19:38.802Z,4.50
2023-02-22T23:22:46.940Z,5.97
2023-02-22T23:25:58.955Z,5.57
2023-02-22T23:29:04.400Z,4.90
2023-02-22T23:32:10.998Z,4.20
2023-02-22T23:35:19.265Z,6.53
2023-02-22T23:38:25.648Z,4.87
2023-02-22T23:41:31.527Z,5.97
2023-02-22T23:44:36.671Z,4.57
2023-02-22T23:47:43.875Z,4.90
2023-02-22T23:50:51.319Z,4.50
2023-02-22T23:53:57.021Z,5.03
2023-02-22T23:57:02.510Z,6.93
